Aviation Digital Data Service (ADDS)

Output produced by METARs form (1740 UTC 21 April 2018)
found at http://aviationweather.gov/adds/metars/
 
LHUD 211715Z 16004KT CAVOK 22/07 Q1018
LHUD 211645Z 14005KT CAVOK 23/08 Q1018
LHUD 211615Z 16004KT CAVOK 23/07 Q1018
LHUD 211545Z 18002KT CAVOK 25/03 Q1019
LHUD 211515Z 14003KT CAVOK 25/04 Q1019
LHUD 211445Z 02003KT CAVOK 25/04 Q1019
LHUD 211415Z 34002KT CAVOK 25/05 Q1019
LHUD 211345Z 06002KT CAVOK 24/05 Q1020
LHUD 211315Z 01002KT CAVOK 24/05 Q1020
LHUD 211245Z 12002KT CAVOK 24/06 Q1021
LHUD 211215Z 01001KT CAVOK 24/05 Q1021
LHUD 211145Z 15002KT CAVOK 23/06 Q1021